createdAt,value
2023-11-18T00:00:55.820Z,5.80
2023-11-18T00:01:56.083Z,5.80
2023-11-18T00:02:56.243Z,6.30
2023-11-18T00:03:56.438Z,6.10
2023-11-18T00:04:56.545Z,6.10
2023-11-18T00:05:56.737Z,6.90
2023-11-18T00:06:56.878Z,5.90
2023-11-18T00:07:57.121Z,5.80
2023-11-18T00:08:57.241Z,5.50
2023-11-18T00:09:57.407Z,6.20
2023-11-18T00:10:57.612Z,5.90
2023-11-18T00:11:57.719Z,6.00
2023-11-18T00:12:57.932Z,5.70
2023-11-18T00:13:58.176Z,6.30
2023-11-18T00:14:58.276Z,5.40
2023-11-18T00:15:58.444Z,5.80
2023-11-18T00:16:58.641Z,5.80
2023-11-18T00:17:58.868Z,5.70
2023-11-18T00:18:58.994Z,5.70
2023-11-18T00:19:59.189Z,6.30
2023-11-18T00:20:59.377Z,6.20
2023-11-18T00:21:59.515Z,6.10
2023-11-18T00:22:59.794Z,6.40
2023-11-18T00:23:59.916Z,5.80
2023-11-18T00:25:00.052Z,6.20
2023-11-18T00:26:00.255Z,6.20
2023-11-18T00:27:00.413Z,6.20
2023-11-18T00:28:00.581Z,6.00
2023-11-18T00:29:00.800Z,6.60
2023-11-18T00:30:01.036Z,6.30
2023-11-18T00:31:01.208Z,5.80
2023-11-18T00:32:01.385Z,5.80
2023-11-18T00:33:01.555Z,6.10
2023-11-18T00:34:01.622Z,6.20
2023-11-18T00:35:01.856Z,5.70
2023-11-18T00:36:01.949Z,6.40
2023-11-18T00:37:02.151Z,5.90
2023-11-18T00:38:02.391Z,6.00
2023-11-18T00:39:02.532Z,5.80
2023-11-18T00:40:02.726Z,5.90
2023-11-18T00:41:02.845Z,6.00
2023-11-18T00:42:02.995Z,6.60
2023-11-18T00:43:03.156Z,5.80
2023-11-18T00:44:03.379Z,7.20
2023-11-18T00:45:03.515Z,5.90
2023-11-18T00:46:03.656Z,5.70
2023-11-18T00:47:04.089Z,6.30
2023-11-18T00:48:04.107Z,6.20
2023-11-18T00:49:04.207Z,6.30
2023-11-18T00:50:04.545Z,6.50
2023-11-18T00:51:04.550Z,6.50
2023-11-18T00:52:04.703Z,5.40
2023-11-18T00:53:04.919Z,6.40
2023-11-18T00:54:05.066Z,6.00
2023-11-18T00:55:05.261Z,6.30
2023-11-18T00:56:05.477Z,6.50
2023-11-18T00:57:05.621Z,6.30
2023-11-18T00:58:05.807Z,6.60
2023-11-18T00:59:06.029Z,6.30
2023-11-18T01:00:06.139Z,6.50
2023-11-18T01:01:06.342Z,6.40
2023-11-18T01:02:06.545Z,6.40
2023-11-18T01:03:06.754Z,6.70
2023-11-18T01:04:06.861Z,7.00
2023-11-18T01:05:07.096Z,7.00
2023-11-18T01:06:07.183Z,6.80
2023-11-18T01:07:07.329Z,6.30
2023-11-18T01:08:07.610Z,6.40
2023-11-18T01:09:07.765Z,6.70
2023-11-18T01:10:07.910Z,6.50
2023-11-18T01:11:08.049Z,6.90
2023-11-18T01:12:09.240Z,6.70
2023-11-18T01:13:08.386Z,6.50
2023-11-18T01:14:08.646Z,6.30
2023-11-18T01:15:08.774Z,6.30
2023-11-18T01:16:08.973Z,6.60
2023-11-18T01:17:09.145Z,6.10
2023-11-18T01:18:09.379Z,6.90
2023-11-18T01:19:09.469Z,6.30
2023-11-18T01:20:09.651Z,6.20
2023-11-18T01:21:09.810Z,6.60
2023-11-18T01:22:10.002Z,6.80
2023-11-18T01:23:10.200Z,6.50
2023-11-18T01:24:10.337Z,6.70
2023-11-18T01:25:10.491Z,6.80
2023-11-18T01:26:10.686Z,6.60
2023-11-18T01:27:10.910Z,6.50
2023-11-18T01:28:11.115Z,6.60
2023-11-18T01:29:11.247Z,6.40
2023-11-18T01:30:11.492Z,6.70
2023-11-18T01:31:11.668Z,6.30
2023-11-18T01:32:11.875Z,6.30
2023-11-18T01:33:12.009Z,6.50
2023-11-18T01:34:12.128Z,6.80
2023-11-18T01:35:12.543Z,6.70
2023-11-18T01:36:12.514Z,6.00
2023-11-18T01:37:12.727Z,6.40
2023-11-18T01:38:12.838Z,6.50
2023-11-18T01:39:13.011Z,6.50
2023-11-18T01:40:13.171Z,6.30
2023-11-18T01:41:13.357Z,7.00
2023-11-18T01:42:13.507Z,6.60
2023-11-18T01:43:13.719Z,6.80
2023-11-18T01:44:13.879Z,6.60
2023-11-18T01:45:14.046Z,6.30
2023-11-18T01:46:14.414Z,6.30
2023-11-18T01:47:14.451Z,6.50
2023-11-18T01:48:14.609Z,6.00
2023-11-18T01:49:14.848Z,6.40
2023-11-18T01:50:14.933Z,6.30
2023-11-18T01:51:15.121Z,6.20
2023-11-18T01:52:15.314Z,6.30
2023-11-18T01:53:15.563Z,6.30
2023-11-18T01:54:15.667Z,6.80
2023-11-18T01:55:15.945Z,6.80
2023-11-18T01:56:16.001Z,5.90
2023-11-18T01:57:16.178Z,6.40
2023-11-18T01:58:16.390Z,6.70
2023-11-18T01:59:16.548Z,6.90
2023-11-18T02:00:16.728Z,6.50
2023-11-18T02:01:16.932Z,7.20
2023-11-18T02:02:17.211Z,6.40
2023-11-18T02:03:17.371Z,6.50
2023-11-18T02:04:17.575Z,6.50
2023-11-18T02:05:17.671Z,6.90
2023-11-18T02:06:17.861Z,6.80
2023-11-18T02:07:18.017Z,6.80
2023-11-18T02:08:18.164Z,6.70
2023-11-18T02:09:18.361Z,6.70
2023-11-18T02:10:18.569Z,6.80
2023-11-18T02:11:18.746Z,6.80
2023-11-18T02:12:18.915Z,7.00
2023-11-18T02:13:19.042Z,6.90
2023-11-18T02:14:19.267Z,6.60
2023-11-18T02:15:19.423Z,7.10
2023-11-18T02:16:19.593Z,7.30
2023-11-18T02:17:19.774Z,7.10
2023-11-18T02:18:19.997Z,6.70
2023-11-18T02:19:20.131Z,7.30
2023-11-18T02:20:20.309Z,7.20
2023-11-18T02:21:20.459Z,7.40
2023-11-18T02:22:20.640Z,7.50
2023-11-18T02:23:20.865Z,7.20
2023-11-18T02:24:21.019Z,7.50
2023-11-18T02:25:21.186Z,7.50
2023-11-18T02:26:21.349Z,7.10
2023-11-18T02:27:21.572Z,7.70
2023-11-18T02:28:21.717Z,7.80
2023-11-18T02:29:22.013Z,7.50
2023-11-18T02:30:22.071Z,7.60
2023-11-18T02:31:22.303Z,7.40
2023-11-18T02:32:22.459Z,8.10
2023-11-18T02:33:22.651Z,7.30
2023-11-18T02:34:22.813Z,7.80
2023-11-18T02:35:22.976Z,8.20
2023-11-18T02:36:23.175Z,8.20
2023-11-18T02:37:23.334Z,8.10
2023-11-18T02:38:23.487Z,7.80
2023-11-18T02:39:23.716Z,7.90
2023-11-18T02:40:23.857Z,7.90
2023-11-18T02:41:24.051Z,7.80
2023-11-18T02:42:24.175Z,8.00
2023-11-18T02:43:24.361Z,8.50
2023-11-18T02:44:24.652Z,8.40
2023-11-18T02:45:24.762Z,7.00
2023-11-18T02:46:24.904Z,8.00
2023-11-18T02:47:25.073Z,8.20
2023-11-18T02:48:25.258Z,8.20
2023-11-18T02:49:25.377Z,8.60
2023-11-18T02:50:25.560Z,8.20
2023-11-18T02:51:25.752Z,7.90
2023-11-18T02:52:25.915Z,7.90
2023-11-18T02:53:26.091Z,9.30
2023-11-18T02:54:26.244Z,8.10
2023-11-18T02:55:26.469Z,8.30
2023-11-18T02:56:26.627Z,7.40
2023-11-18T02:57:26.782Z,7.70
2023-11-18T02:58:26.934Z,8.70
2023-11-18T02:59:27.125Z,7.90
2023-11-18T03:00:27.301Z,8.20
2023-11-18T03:01:27.479Z,8.30
2023-11-18T03:02:27.662Z,7.80
2023-11-18T03:03:27.875Z,8.10
2023-11-18T03:04:27.987Z,7.20
2023-11-18T03:05:28.197Z,7.80
2023-11-18T03:06:28.363Z,8.10
2023-11-18T03:07:28.588Z,7.90
2023-11-18T03:08:28.694Z,8.40
2023-11-18T03:09:28.992Z,8.30
2023-11-18T03:10:29.064Z,8.10
2023-11-18T03:11:29.178Z,7.60
2023-11-18T03:12:29.482Z,8.60
2023-11-18T03:13:29.573Z,8.00
2023-11-18T03:14:29.818Z,8.30
2023-11-18T03:15:29.887Z,7.60
2023-11-18T03:16:30.161Z,9.20
2023-11-18T03:17:30.240Z,8.30
2023-11-18T03:18:30.418Z,8.40
2023-11-18T03:19:30.686Z,8.20
2023-11-18T03:20:30.780Z,8.40
2023-11-18T03:21:30.926Z,8.00
2023-11-18T03:22:31.187Z,8.60
2023-11-18T03:23:31.290Z,8.60
2023-11-18T03:24:31.502Z,8.30
2023-11-18T03:25:31.742Z,8.20
2023-11-18T03:26:31.785Z,8.30
2023-11-18T03:27:31.978Z,8.20
2023-11-18T03:28:32.193Z,8.30
2023-11-18T03:29:32.352Z,8.00
2023-11-18T03:30:32.519Z,7.90
2023-11-18T03:31:32.672Z,8.30
2023-11-18T03:32:32.931Z,8.90
2023-11-18T03:33:33.055Z,8.50
2023-11-18T03:34:33.352Z,8.60
2023-11-18T03:35:33.413Z,9.10
2023-11-18T03:36:33.510Z,9.20
2023-11-18T03:37:33.686Z,8.90
2023-11-18T03:38:34.373Z,8.70
2023-11-18T03:39:34.015Z,9.10
2023-11-18T03:40:34.224Z,9.00
2023-11-18T03:41:34.355Z,9.20
2023-11-18T03:42:34.515Z,9.00
2023-11-18T03:43:34.713Z,8.90
2023-11-18T03:44:34.860Z,8.60
2023-11-18T03:45:35.048Z,8.40
2023-11-18T03:46:35.597Z,8.70
2023-11-18T03:47:35.531Z,8.90
2023-11-18T03:48:35.613Z,8.40
2023-11-18T03:49:35.765Z,9.00
2023-11-18T03:50:35.972Z,8.60
2023-11-18T03:51:36.128Z,8.10
2023-11-18T03:52:36.324Z,8.30
2023-11-18T03:53:36.493Z,8.30
2023-11-18T03:54:36.648Z,7.90
2023-11-18T03:55:36.851Z,7.90
2023-11-18T03:56:36.997Z,7.60
2023-11-18T03:57:37.181Z,7.50
2023-11-18T03:58:37.373Z,7.80
2023-11-18T03:59:37.505Z,8.10
2023-11-18T04:00:37.699Z,7.90
2023-11-18T04:01:37.942Z,7.90
2023-11-18T04:02:38.099Z,8.10
2023-11-18T04:03:38.246Z,8.10
2023-11-18T04:04:38.383Z,8.30
2023-11-18T04:05:38.552Z,7.90
2023-11-18T04:06:38.753Z,8.20
2023-11-18T04:07:38.935Z,8.10
2023-11-18T04:08:39.138Z,7.70
2023-11-18T04:09:39.326Z,7.70
2023-11-18T04:10:39.525Z,7.90
2023-11-18T04:11:39.664Z,7.60
2023-11-18T04:12:39.851Z,7.80
2023-11-18T04:13:39.999Z,7.80
2023-11-18T04:14:40.203Z,7.30
2023-11-18T04:15:40.403Z,7.80
2023-11-18T04:16:40.629Z,8.00
2023-11-18T04:17:40.803Z,7.30
2023-11-18T04:18:40.956Z,7.20
2023-11-18T04:19:41.092Z,7.60
2023-11-18T04:20:41.261Z,7.80
2023-11-18T04:21:41.478Z,7.20
2023-11-18T04:22:41.625Z,7.40
2023-11-18T04:23:41.852Z,7.30
2023-11-18T04:24:41.983Z,7.40
2023-11-18T04:25:42.222Z,7.30
2023-11-18T04:26:42.411Z,6.60
2023-11-18T04:27:45.377Z,7.50
2023-11-18T04:28:42.745Z,7.40
2023-11-18T04:29:42.850Z,7.50
2023-11-18T04:30:43.091Z,7.80
2023-11-18T04:31:43.383Z,8.20
2023-11-18T04:32:44.164Z,7.40
2023-11-18T04:33:43.527Z,7.50
2023-11-18T04:34:44.026Z,7.60
2023-11-18T04:35:43.855Z,7.30
2023-11-18T04:36:44.045Z,7.30
2023-11-18T04:37:44.884Z,6.90
2023-11-18T04:38:44.425Z,7.30
2023-11-18T04:39:44.551Z,7.60
2023-11-18T04:40:44.807Z,7.00
2023-11-18T04:41:44.958Z,7.50
2023-11-18T04:42:45.113Z,6.60
2023-11-18T04:43:46.191Z,7.00
2023-11-18T04:44:45.468Z,7.10
2023-11-18T04:45:45.685Z,7.70
2023-11-18T04:46:45.910Z,7.60
2023-11-18T04:47:46.360Z,7.60
2023-11-18T04:48:46.343Z,7.80
2023-11-18T04:49:46.369Z,7.40
2023-11-18T04:50:46.557Z,7.70
2023-11-18T04:51:46.735Z,7.60
2023-11-18T04:52:46.920Z,8.30
2023-11-18T04:53:47.057Z,8.10
2023-11-18T04:54:47.237Z,8.80
2023-11-18T04:55:47.472Z,7.90
2023-11-18T04:56:47.629Z,7.70
2023-11-18T04:57:47.799Z,7.90
2023-11-18T04:58:48.024Z,7.70
2023-11-18T04:59:48.130Z,7.50
2023-11-18T05:00:48.333Z,7.70
2023-11-18T05:01:48.522Z,7.50
2023-11-18T05:02:49.120Z,7.80
2023-11-18T05:03:49.032Z,7.70
2023-11-18T05:04:49.020Z,7.60
2023-11-18T05:05:49.145Z,8.30
2023-11-18T05:06:49.342Z,8.00
2023-11-18T05:07:49.603Z,7.80
2023-11-18T05:08:49.719Z,7.70
2023-11-18T05:09:49.842Z,8.10
2023-11-18T05:10:50.128Z,7.40
2023-11-18T05:11:50.199Z,8.50
2023-11-18T05:12:50.492Z,8.00
2023-11-18T05:13:50.731Z,8.10
2023-11-18T05:14:50.715Z,8.40
2023-11-18T05:15:50.888Z,8.20
2023-11-18T05:16:51.094Z,7.90
2023-11-18T05:17:51.366Z,8.70
2023-11-18T05:18:51.436Z,8.20
2023-11-18T05:19:51.634Z,7.30
2023-11-18T05:20:51.781Z,7.90
2023-11-18T05:21:51.963Z,7.40
2023-11-18T05:22:52.209Z,8.20
2023-11-18T05:23:52.320Z,8.20
2023-11-18T05:24:52.542Z,8.20
2023-11-18T05:25:52.777Z,8.30
2023-11-18T05:26:52.879Z,8.30
2023-11-18T05:27:53.083Z,8.30
2023-11-18T05:28:53.274Z,7.70
2023-11-18T05:29:53.405Z,8.40
2023-11-18T05:30:53.679Z,8.70
2023-11-18T05:31:53.773Z,8.60
2023-11-18T05:32:53.942Z,8.00
2023-11-18T05:33:54.077Z,8.70
2023-11-18T05:34:54.271Z,8.50
2023-11-18T05:35:54.397Z,8.50
2023-11-18T05:36:54.591Z,8.00
2023-11-18T05:37:54.852Z,8.20
2023-11-18T05:38:54.956Z,8.90
2023-11-18T05:39:55.099Z,8.40
2023-11-18T05:40:55.297Z,8.70
2023-11-18T05:41:55.480Z,8.70
2023-11-18T05:42:55.611Z,8.80
2023-11-18T05:43:55.819Z,7.90
2023-11-18T05:44:55.966Z,8.90
2023-11-18T05:45:56.124Z,9.60
2023-11-18T05:46:56.435Z,8.40
2023-11-18T05:47:56.530Z,8.30
2023-11-18T05:48:56.652Z,9.00
2023-11-18T05:49:56.834Z,8.40
2023-11-18T05:50:57.031Z,8.60
2023-11-18T05:51:57.154Z,9.00
2023-11-18T05:52:57.402Z,8.60
2023-11-18T05:53:57.545Z,8.20
2023-11-18T05:54:57.702Z,7.80
2023-11-18T05:55:57.922Z,7.30
2023-11-18T05:56:59.960Z,8.60
2023-11-18T05:57:58.230Z,8.70
2023-11-18T05:58:58.461Z,8.20
2023-11-18T05:59:58.632Z,8.40
2023-11-18T06:00:58.796Z,8.00
2023-11-18T06:01:58.974Z,8.00
2023-11-18T06:02:59.297Z,9.00
2023-11-18T06:03:59.383Z,8.40
2023-11-18T06:04:59.496Z,8.20
2023-11-18T06:05:59.620Z,8.20
2023-11-18T06:06:59.858Z,7.70
2023-11-18T06:08:00.110Z,8.20
2023-11-18T06:09:00.273Z,7.70
2023-11-18T06:10:00.449Z,8.20
2023-11-18T06:11:00.534Z,8.50
2023-11-18T06:12:00.735Z,7.60
2023-11-18T06:13:00.863Z,8.20
2023-11-18T06:14:01.089Z,8.00
2023-11-18T06:15:01.236Z,8.00
2023-11-18T06:16:01.390Z,7.70
2023-11-18T06:17:01.602Z,8.70
2023-11-18T06:18:01.775Z,7.80
2023-11-18T06:19:01.856Z,7.70
2023-11-18T06:20:02.111Z,7.80
2023-11-18T06:21:02.232Z,7.70
2023-11-18T06:22:02.357Z,8.40
2023-11-18T06:23:02.569Z,7.50
2023-11-18T06:24:02.707Z,7.90
2023-11-18T06:25:02.918Z,7.60
2023-11-18T06:26:03.128Z,6.90
2023-11-18T06:27:03.224Z,7.30
2023-11-18T06:28:03.370Z,7.00
2023-11-18T06:29:03.592Z,8.10
2023-11-18T06:30:03.739Z,7.10
2023-11-18T06:31:03.951Z,7.20
2023-11-18T06:32:04.179Z,7.10
2023-11-18T06:33:04.365Z,7.40
2023-11-18T06:34:04.447Z,7.70
2023-11-18T06:35:04.626Z,6.90
2023-11-18T06:36:04.790Z,7.70
2023-11-18T06:37:05.034Z,7.70
2023-11-18T06:38:05.188Z,7.20
2023-11-18T06:39:05.339Z,7.40
2023-11-18T06:40:05.490Z,6.80
2023-11-18T06:41:07.399Z,7.20
2023-11-18T06:42:05.890Z,6.60
2023-11-18T06:43:06.039Z,7.30
2023-11-18T06:44:06.250Z,7.10
2023-11-18T06:45:06.372Z,7.40
2023-11-18T06:46:06.588Z,7.80
2023-11-18T06:47:06.953Z,7.30
2023-11-18T06:48:07.070Z,7.30
2023-11-18T06:49:07.045Z,7.10
2023-11-18T06:50:07.268Z,8.20
2023-11-18T06:51:07.363Z,7.60
2023-11-18T06:52:07.578Z,9.20
2023-11-18T06:53:07.773Z,8.20
2023-11-18T06:54:07.906Z,8.30
2023-11-18T06:55:08.078Z,8.80
2023-11-18T06:56:08.268Z,7.70
2023-11-18T06:57:08.463Z,8.20
2023-11-18T06:58:08.614Z,8.40
2023-11-18T06:59:08.951Z,8.20
2023-11-18T07:00:08.960Z,8.20
2023-11-18T07:01:09.267Z,8.20
2023-11-18T07:02:09.366Z,8.40
2023-11-18T07:03:09.571Z,8.10
2023-11-18T07:04:09.887Z,8.40
2023-11-18T07:05:09.919Z,8.20
2023-11-18T07:06:10.016Z,8.00
2023-11-18T07:07:10.286Z,7.60
2023-11-18T07:08:10.362Z,7.90
2023-11-18T07:09:10.526Z,8.50
2023-11-18T07:10:10.700Z,7.70
2023-11-18T07:11:10.929Z,7.50
2023-11-18T07:12:11.055Z,7.60
2023-11-18T07:13:11.232Z,8.00
2023-11-18T07:14:11.468Z,7.80
2023-11-18T07:15:11.588Z,8.10
2023-11-18T07:16:11.843Z,8.40
2023-11-18T07:17:12.029Z,8.20
2023-11-18T07:18:12.181Z,8.70
2023-11-18T07:19:12.255Z,8.50
2023-11-18T07:20:12.489Z,7.30
2023-11-18T07:21:12.625Z,7.60
2023-11-18T07:22:12.791Z,9.20
2023-11-18T07:23:13.061Z,8.40
2023-11-18T07:24:13.185Z,7.30
2023-11-18T07:25:13.343Z,7.80
2023-11-18T07:26:13.697Z,8.00
2023-11-18T07:27:13.746Z,8.50
2023-11-18T07:28:13.865Z,8.40
2023-11-18T07:29:14.124Z,8.00
2023-11-18T07:30:14.252Z,8.10
2023-11-18T07:31:14.459Z,8.50
2023-11-18T07:32:14.672Z,8.30
2023-11-18T07:33:14.773Z,7.90
2023-11-18T07:34:14.916Z,9.20
2023-11-18T07:35:15.121Z,8.60
2023-11-18T07:36:15.297Z,8.90
2023-11-18T07:37:15.417Z,8.40
2023-11-18T07:38:15.621Z,8.80
2023-11-18T07:39:15.800Z,8.70
2023-11-18T07:40:15.944Z,9.20
2023-11-18T07:41:16.195Z,8.60
2023-11-18T07:42:16.321Z,8.70
2023-11-18T07:43:16.507Z,9.10
2023-11-18T07:44:16.717Z,8.70
2023-11-18T07:45:16.839Z,8.60
2023-11-18T07:46:17.106Z,8.80
2023-11-18T07:47:17.213Z,9.20
2023-11-18T07:48:17.409Z,9.70
2023-11-18T07:49:17.571Z,9.10
2023-11-18T07:50:17.739Z,8.70
2023-11-18T07:51:17.862Z,8.30
2023-11-18T07:52:18.068Z,9.00
2023-11-18T07:53:18.303Z,8.80
2023-11-18T07:54:18.385Z,11.20
2023-11-18T07:55:18.586Z,17.50
2023-11-18T07:56:18.817Z,11.00
2023-11-18T07:57:18.911Z,10.20
2023-11-18T07:58:19.097Z,10.60
2023-11-18T07:59:19.314Z,10.40
2023-11-18T08:00:19.469Z,9.50
2023-11-18T08:01:19.690Z,10.60
2023-11-18T08:02:19.915Z,10.70
2023-11-18T08:03:20.055Z,10.80
2023-11-18T08:04:20.126Z,11.60
2023-11-18T08:05:20.402Z,11.40
2023-11-18T08:06:20.463Z,11.70
2023-11-18T08:07:20.664Z,12.20
2023-11-18T08:08:20.906Z,12.70
2023-11-18T08:09:21.020Z,12.40
2023-11-18T08:10:21.153Z,12.20
2023-11-18T08:11:21.352Z,12.00
2023-11-18T08:12:21.559Z,12.80
2023-11-18T08:13:21.706Z,13.00
2023-11-18T08:14:21.917Z,13.20
2023-11-18T08:15:22.056Z,13.70
2023-11-18T08:16:22.369Z,12.40
2023-11-18T08:17:22.508Z,14.00
2023-11-18T08:18:22.632Z,11.90
2023-11-18T08:19:22.759Z,13.10
2023-11-18T08:20:23.011Z,13.30
2023-11-18T08:21:23.110Z,12.30
2023-11-18T08:22:23.329Z,13.20
2023-11-18T08:23:23.515Z,12.90
2023-11-18T08:24:23.649Z,15.00
2023-11-18T08:25:23.839Z,13.90
2023-11-18T08:26:24.062Z,14.60
2023-11-18T08:27:24.186Z,13.90
2023-11-18T08:28:24.378Z,14.40
2023-11-18T08:29:24.611Z,13.30
2023-11-18T08:30:24.744Z,14.40
2023-11-18T08:31:24.970Z,14.40
2023-11-18T08:32:25.197Z,14.10
2023-11-18T08:33:25.401Z,14.60
2023-11-18T08:34:25.432Z,14.20
2023-11-18T08:35:25.590Z,13.70
2023-11-18T08:36:25.822Z,12.40
2023-11-18T08:37:25.999Z,13.10
2023-11-18T08:38:26.110Z,11.70
2023-11-18T08:39:26.285Z,12.30
2023-11-18T08:40:26.478Z,11.50
2023-11-18T08:41:26.616Z,11.60
2023-11-18T08:42:26.780Z,12.00
2023-11-18T08:43:26.957Z,13.10
2023-11-18T08:44:27.174Z,12.40
2023-11-18T08:45:27.283Z,11.20
2023-11-18T08:46:27.470Z,11.00
2023-11-18T08:47:27.645Z,10.30
2023-11-18T08:48:27.797Z,10.60
2023-11-18T08:49:27.990Z,10.70
2023-11-18T08:50:28.172Z,11.20
2023-11-18T08:51:28.387Z,11.00
2023-11-18T08:52:28.541Z,10.90
2023-11-18T08:53:28.766Z,12.40
2023-11-18T08:54:28.869Z,11.30
2023-11-18T08:55:28.996Z,10.90
2023-11-18T08:56:29.325Z,11.70
2023-11-18T08:57:29.418Z,10.50
2023-11-18T08:58:30.137Z,10.60
2023-11-18T08:59:29.747Z,10.60
2023-11-18T09:00:29.912Z,9.70
2023-11-18T09:01:30.178Z,9.80
2023-11-18T09:02:31.685Z,10.50
2023-11-18T09:03:30.674Z,10.30
2023-11-18T09:04:30.667Z,9.60
2023-11-18T09:05:30.797Z,10.30
2023-11-18T09:06:30.978Z,9.50
2023-11-18T09:07:31.141Z,9.90
2023-11-18T09:08:31.327Z,9.30
2023-11-18T09:09:31.542Z,9.70
2023-11-18T09:10:31.658Z,10.30
2023-11-18T09:11:31.830Z,10.10
2023-11-18T09:12:31.970Z,11.10
2023-11-18T09:13:32.127Z,10.60
2023-11-18T09:14:32.410Z,10.50
2023-11-18T09:15:32.492Z,10.90
2023-11-18T09:16:32.698Z,10.30
2023-11-18T09:17:32.927Z,10.50
2023-11-18T09:18:33.118Z,10.40
2023-11-18T09:19:33.150Z,10.50
2023-11-18T09:20:33.342Z,10.00
2023-11-18T09:21:33.560Z,10.40
2023-11-18T09:22:33.689Z,10.70
2023-11-18T09:23:33.857Z,10.50
2023-11-18T09:24:35.447Z,9.90
2023-11-18T09:25:34.211Z,9.80
2023-11-18T09:26:34.381Z,10.00
2023-11-18T09:27:34.582Z,9.50
2023-11-18T09:28:34.734Z,10.00
2023-11-18T09:29:34.911Z,10.30
2023-11-18T09:30:35.067Z,9.50
2023-11-18T09:31:35.316Z,10.20
2023-11-18T09:32:35.503Z,9.40
2023-11-18T09:33:36.027Z,10.20
2023-11-18T09:34:35.732Z,10.50
2023-11-18T09:35:35.959Z,11.00
2023-11-18T09:36:36.096Z,10.10
2023-11-18T09:37:36.334Z,9.80
2023-11-18T09:38:36.513Z,9.80
2023-11-18T09:39:36.676Z,9.40
2023-11-18T09:40:36.819Z,9.40
2023-11-18T09:41:37.004Z,9.60
2023-11-18T09:42:37.252Z,9.30
2023-11-18T09:43:37.482Z,9.60
2023-11-18T09:44:37.551Z,9.20
2023-11-18T09:45:37.782Z,9.90
2023-11-18T09:46:37.908Z,15.10
2023-11-18T09:47:38.152Z,82.40
2023-11-18T09:48:38.241Z,70.60
2023-11-18T09:49:38.437Z,28.10
2023-11-18T09:50:38.682Z,25.50
2023-11-18T09:51:38.771Z,18.20
2023-11-18T09:52:38.938Z,9.30
2023-11-18T09:53:39.151Z,8.70
2023-11-18T09:54:39.281Z,7.80
2023-11-18T09:55:39.473Z,8.00
2023-11-18T09:56:40.137Z,7.90
2023-11-18T09:57:39.776Z,8.00
2023-11-18T09:58:39.960Z,8.40
2023-11-18T09:59:40.146Z,8.30
2023-11-18T10:00:40.375Z,7.90
2023-11-18T10:01:40.516Z,8.50
2023-11-18T10:02:40.698Z,7.80
2023-11-18T10:03:40.885Z,7.80
2023-11-18T10:04:41.046Z,8.50
2023-11-18T10:05:41.220Z,9.00
2023-11-18T10:06:41.407Z,19.30
2023-11-18T10:07:41.592Z,9.30
2023-11-18T10:08:41.717Z,8.60
2023-11-18T10:09:41.893Z,8.60
2023-11-18T10:10:42.119Z,7.50
2023-11-18T10:11:42.267Z,7.70
2023-11-18T10:12:42.439Z,7.30
2023-11-18T10:13:42.644Z,7.50
2023-11-18T10:14:42.840Z,8.00
2023-11-18T10:15:42.964Z,7.70
2023-11-18T10:16:43.161Z,8.50
2023-11-18T10:17:43.354Z,10.10
2023-11-18T10:18:43.521Z,10.70
2023-11-18T10:19:43.687Z,8.70
2023-11-18T10:20:43.832Z,8.90
2023-11-18T10:21:44.002Z,8.60
2023-11-18T10:22:44.206Z,8.80
2023-11-18T10:23:44.327Z,8.30
2023-11-18T10:24:44.520Z,8.40
2023-11-18T10:25:44.799Z,8.40
2023-11-18T10:26:44.862Z,8.50
2023-11-18T10:27:45.054Z,8.10
2023-11-18T10:28:45.234Z,7.90
2023-11-18T10:29:45.396Z,7.90
2023-11-18T10:30:46.394Z,8.20
2023-11-18T10:31:45.746Z,8.40
2023-11-18T10:32:45.955Z,8.50
2023-11-18T10:33:46.110Z,8.40
2023-11-18T10:34:46.316Z,9.10
2023-11-18T10:35:46.413Z,8.80
2023-11-18T10:36:46.612Z,8.30
2023-11-18T10:37:46.778Z,9.20
2023-11-18T10:38:46.940Z,9.40
2023-11-18T10:39:47.129Z,9.60
2023-11-18T10:40:47.338Z,10.60
2023-11-18T10:41:47.453Z,11.20
2023-11-18T10:42:47.682Z,12.10
2023-11-18T10:43:47.832Z,11.00
2023-11-18T10:44:47.995Z,10.90
2023-11-18T10:45:48.255Z,11.90
2023-11-18T10:46:48.375Z,13.10
2023-11-18T10:47:48.546Z,14.20
2023-11-18T10:48:49.187Z,13.60
2023-11-18T10:49:48.919Z,14.80
2023-11-18T10:50:49.089Z,13.80
2023-11-18T10:51:49.205Z,12.00
2023-11-18T10:52:49.430Z,12.30
2023-11-18T10:53:49.588Z,10.90
2023-11-18T10:54:49.776Z,11.60
2023-11-18T10:55:49.913Z,10.20
2023-11-18T10:56:50.143Z,9.60
2023-11-18T10:57:50.301Z,9.70
2023-11-18T10:58:50.513Z,8.70
2023-11-18T10:59:50.602Z,9.10
2023-11-18T11:00:50.859Z,9.70
2023-11-18T11:01:51.625Z,9.50
2023-11-18T11:02:51.816Z,10.60
2023-11-18T11:03:51.378Z,10.00
2023-11-18T11:04:51.479Z,10.50
2023-11-18T11:05:51.679Z,10.30
2023-11-18T11:06:51.817Z,10.60
2023-11-18T11:07:52.012Z,9.90
2023-11-18T11:08:52.672Z,11.60
2023-11-18T11:09:52.309Z,11.30
2023-11-18T11:10:52.509Z,10.60
2023-11-18T11:11:52.659Z,18.30
2023-11-18T11:12:52.861Z,21.20
2023-11-18T11:13:53.011Z,12.30
2023-11-18T11:14:53.206Z,11.30
2023-11-18T11:15:57.582Z,10.80
2023-11-18T11:16:53.602Z,11.40
2023-11-18T11:17:53.722Z,10.20
2023-11-18T11:18:53.847Z,11.10
2023-11-18T11:19:54.048Z,10.70
2023-11-18T11:20:54.196Z,11.20
2023-11-18T11:21:54.389Z,11.20
2023-11-18T11:22:54.541Z,11.50
2023-11-18T11:23:54.732Z,10.90
2023-11-18T11:24:54.881Z,11.40
2023-11-18T11:25:55.105Z,11.00
2023-11-18T11:26:55.272Z,34.70
2023-11-18T11:27:55.400Z,63.00
2023-11-18T11:28:55.647Z,34.30
2023-11-18T11:29:55.787Z,183.70
2023-11-18T11:30:55.944Z,151.30
2023-11-18T11:31:56.105Z,71.50
2023-11-18T11:32:56.240Z,63.50
2023-11-18T11:33:56.398Z,35.80
2023-11-18T11:34:56.611Z,84.20
2023-11-18T11:35:56.726Z,87.70
2023-11-18T11:36:56.970Z,32.70
2023-11-18T11:37:57.096Z,15.80
2023-11-18T11:38:57.379Z,13.20
2023-11-18T11:39:57.405Z,16.60
2023-11-18T11:40:57.623Z,13.10
2023-11-18T11:41:58.370Z,11.50
2023-11-18T11:42:57.976Z,10.60
2023-11-18T11:43:58.182Z,10.10
2023-11-18T11:44:58.308Z,11.10
2023-11-18T11:45:58.507Z,11.10
2023-11-18T11:46:58.776Z,11.00
2023-11-18T11:47:58.926Z,21.70
2023-11-18T11:48:58.994Z,13.00
2023-11-18T11:50:01.708Z,13.00
2023-11-18T11:50:59.393Z,12.30
2023-11-18T11:51:59.522Z,15.50
2023-11-18T11:52:59.712Z,11.70
2023-11-18T11:53:59.851Z,10.30
2023-11-18T11:55:00.039Z,11.50
2023-11-18T11:56:00.334Z,12.50
2023-11-18T11:57:00.362Z,15.40
2023-11-18T11:58:00.549Z,12.00
2023-11-18T11:59:00.772Z,10.40
2023-11-18T12:00:00.902Z,10.20
2023-11-18T12:01:01.088Z,10.00
2023-11-18T12:02:01.296Z,10.50
2023-11-18T12:03:01.453Z,11.20
2023-11-18T12:04:01.654Z,11.40
2023-11-18T12:05:01.867Z,10.20
2023-11-18T12:06:02.012Z,10.20
2023-11-18T12:07:08.856Z,9.20
2023-11-18T12:08:03.390Z,10.50
2023-11-18T12:09:02.516Z,10.80
2023-11-18T12:10:02.691Z,10.90
2023-11-18T12:11:02.979Z,16.80
2023-11-18T12:12:03.039Z,34.30
2023-11-18T12:13:03.200Z,12.10
2023-11-18T12:14:03.424Z,18.60
2023-11-18T12:15:03.604Z,15.70
2023-11-18T12:16:03.823Z,27.70
2023-11-18T12:17:04.043Z,13.20
2023-11-18T12:18:04.213Z,15.90
2023-11-18T12:19:04.346Z,9.90
2023-11-18T12:20:04.574Z,10.90
2023-11-18T12:21:04.654Z,11.90
2023-11-18T12:22:04.821Z,10.90
2023-11-18T12:23:05.024Z,9.90
2023-11-18T12:24:05.230Z,9.90
2023-11-18T12:25:05.381Z,12.00
2023-11-18T12:26:05.514Z,11.20
2023-11-18T12:27:05.685Z,10.20
2023-11-18T12:28:05.864Z,9.50
2023-11-18T12:29:06.097Z,10.40
2023-11-18T12:30:06.208Z,9.80
2023-11-18T12:31:07.720Z,10.30
2023-11-18T12:32:06.627Z,9.80
2023-11-18T12:33:06.961Z,9.60
2023-11-18T12:34:07.022Z,8.60
2023-11-18T12:35:07.120Z,8.60
2023-11-18T12:36:07.295Z,8.10
2023-11-18T12:37:07.483Z,8.10
2023-11-18T12:38:07.618Z,9.00
2023-11-18T12:39:07.773Z,8.80
2023-11-18T12:40:07.954Z,8.00
2023-11-18T12:41:08.258Z,7.20
2023-11-18T12:42:08.496Z,8.10
2023-11-18T12:43:08.522Z,7.80
2023-11-18T12:44:08.753Z,7.90
2023-11-18T12:45:08.816Z,8.50
2023-11-18T12:46:09.105Z,9.20
2023-11-18T12:47:09.242Z,8.00
2023-11-18T12:48:09.487Z,9.20
2023-11-18T12:49:09.505Z,8.70
2023-11-18T12:50:09.742Z,8.80
2023-11-18T12:51:09.868Z,9.80
2023-11-18T12:52:10.052Z,8.40
2023-11-18T12:53:10.302Z,8.20
2023-11-18T12:54:10.405Z,8.50
2023-11-18T12:55:10.585Z,9.40
2023-11-18T12:56:10.824Z,9.90
2023-11-18T12:57:10.945Z,9.10
2023-11-18T12:58:11.119Z,8.80
2023-11-18T12:59:11.367Z,8.70
2023-11-18T13:00:11.492Z,8.40
2023-11-18T13:01:11.658Z,8.50
2023-11-18T13:02:11.904Z,8.30
2023-11-18T13:03:12.425Z,8.30
2023-11-18T13:04:12.196Z,8.50
2023-11-18T13:05:12.326Z,7.90
2023-11-18T13:06:12.471Z,7.90
2023-11-18T13:07:12.648Z,8.60
2023-11-18T13:08:12.881Z,8.70
2023-11-18T13:09:13.032Z,8.00
2023-11-18T13:10:13.175Z,7.90
2023-11-18T13:11:13.349Z,8.40
2023-11-18T13:12:13.510Z,8.20
2023-11-18T13:13:13.668Z,8.00
2023-11-18T13:14:13.948Z,7.70